createdAt,value
2017-12-26T00:01:07.691Z,99539.97
2017-12-26T00:03:35.103Z,99538.80
2017-12-26T00:06:02.505Z,99529.84
2017-12-26T00:08:29.958Z,99524.33
2017-12-26T00:10:57.394Z,99510.63
2017-12-26T00:13:24.822Z,99502.68
2017-12-26T00:15:52.273Z,99494.45
2017-12-26T00:18:19.698Z,99479.29
2017-12-26T00:20:47.097Z,99458.60
2017-12-26T00:23:14.521Z,99454.33
2017-12-26T00:25:41.929Z,99446.03
2017-12-26T00:28:09.358Z,99440.73
2017-12-26T00:30:36.770Z,99428.31
2017-12-26T00:33:04.218Z,99431.06
2017-12-26T00:35:31.629Z,99404.68
2017-12-26T00:37:59.058Z,99405.30
2017-12-26T00:40:26.460Z,99407.50
2017-12-26T00:42:53.869Z,99409.15
2017-12-26T00:45:21.314Z,99405.02
2017-12-26T00:47:48.713Z,99399.17
2017-12-26T00:50:16.124Z,99394.13
2017-12-26T00:52:43.533Z,99382.23
2017-12-26T00:55:10.941Z,99384.58
2017-12-26T00:57:38.346Z,99369.19
2017-12-26T01:00:05.785Z,99375.08
2017-12-26T01:02:33.200Z,99364.73
2017-12-26T01:05:00.605Z,99358.55
2017-12-26T01:07:28.026Z,99356.84
2017-12-26T01:09:55.445Z,99346.61
2017-12-26T01:12:22.857Z,99353.66
2017-12-26T01:14:50.288Z,99351.34
2017-12-26T01:17:17.690Z,99339.38
2017-12-26T01:19:45.095Z,99340.70
2017-12-26T01:22:12.510Z,99323.69
2017-12-26T01:24:39.918Z,99324.91
2017-12-26T01:27:07.344Z,99327.17
2017-12-26T01:29:34.769Z,99312.66
2017-12-26T01:32:02.174Z,99321.50
2017-12-26T01:34:29.577Z,99302.02
2017-12-26T01:36:57.117Z,99307.13
2017-12-26T01:39:24.524Z,99308.89
2017-12-26T01:41:51.936Z,99289.98
2017-12-26T01:44:19.342Z,99288.15
2017-12-26T01:46:46.752Z,99291.34
2017-12-26T01:49:14.174Z,99291.53
2017-12-26T01:51:41.589Z,99290.78
2017-12-26T01:54:08.996Z,99284.78
2017-12-26T01:56:36.406Z,99282.16
2017-12-26T01:59:03.825Z,99284.08
2017-12-26T02:01:31.237Z,99274.43
2017-12-26T02:03:59.487Z,99273.91
2017-12-26T02:06:26.917Z,99268.85
2017-12-26T02:08:54.326Z,99265.38
2017-12-26T02:11:21.725Z,99254.92
2017-12-26T02:13:49.137Z,99261.53
2017-12-26T02:16:16.542Z,99261.42
2017-12-26T02:18:43.969Z,99252.77
2017-12-26T02:21:11.385Z,99249.41
2017-12-26T02:23:38.801Z,99247.59
2017-12-26T02:26:06.209Z,99248.09
2017-12-26T02:28:33.625Z,99241.59
2017-12-26T02:31:01.055Z,99241.40
2017-12-26T02:33:28.466Z,99241.78
2017-12-26T02:35:55.918Z,99239.97
2017-12-26T02:38:23.332Z,99232.53
2017-12-26T02:40:50.730Z,99224.81
2017-12-26T02:43:18.157Z,99225.84
2017-12-26T02:45:45.562Z,99213.63
2017-12-26T02:48:12.969Z,99216.96
2017-12-26T02:50:40.392Z,99206.00
2017-12-26T02:53:07.798Z,99205.78
2017-12-26T02:55:35.207Z,99202.64
2017-12-26T02:58:02.656Z,99199.47
2017-12-26T03:00:30.061Z,99189.41
2017-12-26T03:02:57.502Z,99187.55
2017-12-26T03:05:24.925Z,99174.62
2017-12-26T03:07:52.325Z,99170.34
2017-12-26T03:10:19.732Z,99166.05
2017-12-26T03:12:47.148Z,99153.23
2017-12-26T03:15:14.561Z,99154.86
2017-12-26T03:17:41.976Z,99141.61
2017-12-26T03:20:09.402Z,99137.84
2017-12-26T03:22:36.813Z,99125.75
2017-12-26T03:25:04.225Z,99125.55
2017-12-26T03:27:31.640Z,99109.80
2017-12-26T03:29:59.040Z,99104.22
2017-12-26T03:32:26.469Z,99094.77
2017-12-26T03:34:53.990Z,99085.70
2017-12-26T03:37:21.394Z,99083.38
2017-12-26T03:39:48.805Z,99079.34
2017-12-26T03:42:16.249Z,99086.94
2017-12-26T03:44:43.649Z,99074.84
2017-12-26T03:47:11.061Z,99073.00
2017-12-26T03:49:38.474Z,99060.09
2017-12-26T03:52:05.889Z,99057.53
2017-12-26T03:54:33.293Z,99052.34
2017-12-26T03:57:00.749Z,99042.48
2017-12-26T03:59:28.171Z,99042.67
2017-12-26T04:01:55.570Z,99027.23
2017-12-26T04:04:22.982Z,99019.69
2017-12-26T04:06:50.390Z,99022.95
2017-12-26T04:09:17.797Z,99019.16
2017-12-26T04:11:45.313Z,99014.29
2017-12-26T04:14:12.717Z,99010.60
2017-12-26T04:16:40.122Z,99000.93
2017-12-26T04:19:07.565Z,98994.02
2017-12-26T04:21:34.969Z,98988.30
2017-12-26T04:24:02.373Z,98983.63
2017-12-26T04:26:29.793Z,98978.94
2017-12-26T04:28:57.204Z,98972.62
2017-12-26T04:31:24.617Z,98970.27
2017-12-26T04:33:52.133Z,98959.05
2017-12-26T04:36:19.539Z,98953.72
2017-12-26T04:38:46.936Z,98953.88
2017-12-26T04:41:14.369Z,98942.80
2017-12-26T04:43:41.791Z,98942.55
2017-12-26T04:46:09.181Z,98938.05
2017-12-26T04:48:36.598Z,98919.28
2017-12-26T04:51:04.005Z,98920.37
2017-12-26T04:53:31.448Z,98898.74
2017-12-26T04:55:58.909Z,98886.59
2017-12-26T04:58:26.325Z,98871.88
2017-12-26T05:00:53.733Z,98874.83
2017-12-26T05:03:21.166Z,98862.97
2017-12-26T05:05:48.573Z,98869.66
2017-12-26T05:08:15.981Z,98857.86
2017-12-26T05:10:43.397Z,98850.07
2017-12-26T05:13:10.802Z,98849.07
2017-12-26T05:15:38.206Z,98854.28
2017-12-26T05:18:05.724Z,98841.90
2017-12-26T05:20:33.154Z,98839.90
2017-12-26T05:23:00.561Z,98837.40
2017-12-26T05:25:28.016Z,98820.02
2017-12-26T05:27:55.422Z,98818.11
2017-12-26T05:30:22.857Z,98819.75
2017-12-26T05:32:50.281Z,98816.83
2017-12-26T05:35:17.693Z,98813.70
2017-12-26T05:37:45.097Z,98797.78
2017-12-26T05:40:12.553Z,98798.20
2017-12-26T05:42:39.970Z,98799.23
2017-12-26T05:45:07.393Z,98798.56
2017-12-26T05:47:34.804Z,98810.91
2017-12-26T05:50:02.222Z,98802.13
2017-12-26T05:52:30.325Z,98808.78
2017-12-26T05:54:57.741Z,98803.45
2017-12-26T05:57:25.152Z,98809.94
2017-12-26T05:59:52.558Z,98821.06
2017-12-26T06:02:19.988Z,98821.07
2017-12-26T06:04:47.397Z,98825.63
2017-12-26T06:07:14.807Z,98826.61
2017-12-26T06:09:42.317Z,98819.85
2017-12-26T06:12:09.729Z,98815.45
2017-12-26T06:14:37.126Z,98820.42
2017-12-26T06:17:04.549Z,98813.49
2017-12-26T06:19:31.962Z,98820.77
2017-12-26T06:21:59.366Z,98831.84
2017-12-26T06:24:26.813Z,98830.98
2017-12-26T06:26:54.217Z,98840.22
2017-12-26T06:29:21.644Z,98836.98
2017-12-26T06:31:49.057Z,98840.97
2017-12-26T06:34:16.465Z,98843.39
2017-12-26T06:36:43.865Z,98851.70
2017-12-26T06:39:11.380Z,98845.29
2017-12-26T06:41:38.780Z,98839.14
2017-12-26T06:44:06.192Z,98852.05
2017-12-26T06:46:33.630Z,98844.78
2017-12-26T06:49:01.053Z,98849.58
2017-12-26T06:51:28.462Z,98855.73
2017-12-26T06:53:55.894Z,98852.84
2017-12-26T06:56:23.297Z,98856.25
2017-12-26T06:58:50.710Z,98841.44
2017-12-26T07:01:18.125Z,98848.02
2017-12-26T07:03:45.538Z,98842.53
2017-12-26T07:06:12.937Z,98846.98
2017-12-26T07:08:40.374Z,98850.09
2017-12-26T07:11:07.785Z,98856.09
2017-12-26T07:13:35.198Z,98852.58
2017-12-26T07:16:02.638Z,98852.50
2017-12-26T07:18:30.050Z,98856.08
2017-12-26T07:21:03.057Z,98854.62
2017-12-26T07:23:30.464Z,98863.86
2017-12-26T07:25:57.875Z,98861.20
2017-12-26T07:28:25.338Z,98868.61
2017-12-26T07:30:52.749Z,98868.72
2017-12-26T07:33:20.290Z,98871.27
2017-12-26T07:35:47.805Z,98874.33
2017-12-26T07:38:15.215Z,98880.36
2017-12-26T07:40:42.618Z,98881.06
2017-12-26T07:43:10.082Z,98883.19
2017-12-26T07:45:37.506Z,98883.05
2017-12-26T07:48:04.905Z,98882.98
2017-12-26T07:50:32.414Z,98887.19
2017-12-26T07:52:59.847Z,98889.00
2017-12-26T07:55:27.254Z,98888.86
2017-12-26T07:57:54.686Z,98901.38
2017-12-26T08:00:22.086Z,98904.66
2017-12-26T08:02:49.494Z,98903.37
2017-12-26T08:05:16.937Z,98909.00
2017-12-26T08:07:44.361Z,98914.23
2017-12-26T08:10:11.774Z,98907.27
2017-12-26T08:12:39.225Z,98909.09
2017-12-26T08:15:06.681Z,98911.50
2017-12-26T08:17:34.115Z,98916.92
2017-12-26T08:20:01.564Z,98913.30
2017-12-26T08:22:29.423Z,98917.70
2017-12-26T08:24:56.848Z,98922.90
2017-12-26T08:27:24.254Z,98912.12
2017-12-26T08:29:51.722Z,98915.40
2017-12-26T08:32:19.129Z,98918.40
2017-12-26T08:34:46.637Z,98930.33
2017-12-26T08:37:14.049Z,98936.98
2017-12-26T08:39:41.453Z,98953.97
2017-12-26T08:42:08.873Z,98947.81
2017-12-26T08:44:36.361Z,98956.05
2017-12-26T08:47:03.765Z,98964.14
2017-12-26T08:49:31.205Z,98971.52
2017-12-26T08:51:58.612Z,98973.18
2017-12-26T08:54:26.042Z,98981.03
2017-12-26T08:56:53.472Z,98989.63
2017-12-26T08:59:20.884Z,98998.84
2017-12-26T09:01:48.304Z,98996.28
2017-12-26T09:04:15.800Z,98997.20
2017-12-26T09:06:43.194Z,99010.13
2017-12-26T09:09:10.606Z,99007.77
2017-12-26T09:11:38.045Z,99010.02
2017-12-26T09:14:05.449Z,99018.64
2017-12-26T09:16:32.873Z,99028.38
2017-12-26T09:19:00.301Z,99024.22
2017-12-26T09:21:27.717Z,99024.91
2017-12-26T09:23:55.138Z,99021.67
2017-12-26T09:26:22.570Z,99010.41
2017-12-26T09:28:49.969Z,99004.30
2017-12-26T09:31:17.381Z,98996.86
2017-12-26T09:33:44.821Z,99003.72
2017-12-26T09:36:12.249Z,99001.52
2017-12-26T09:38:39.650Z,99000.88
2017-12-26T09:41:07.106Z,98995.87
2017-12-26T09:43:34.510Z,98986.47
2017-12-26T09:46:01.974Z,98993.33
2017-12-26T09:48:29.406Z,99003.13
2017-12-26T09:50:56.832Z,99007.12
2017-12-26T09:53:24.276Z,99008.24
2017-12-26T09:55:51.740Z,99010.55
2017-12-26T09:58:19.177Z,99021.05
2017-12-26T10:00:46.610Z,99007.06
2017-12-26T10:03:14.064Z,99010.16
2017-12-26T10:05:42.271Z,99015.05
2017-12-26T10:08:09.678Z,99017.02
2017-12-26T10:10:37.831Z,99021.30
2017-12-26T10:13:05.229Z,99019.30
2017-12-26T10:15:32.642Z,99019.32
2017-12-26T10:18:00.057Z,99021.77
2017-12-26T10:20:27.468Z,99017.20
2017-12-26T10:22:54.870Z,99018.62
2017-12-26T10:25:22.309Z,99020.23
2017-12-26T10:27:49.720Z,99017.97
2017-12-26T10:30:17.142Z,99010.59
2017-12-26T10:32:44.565Z,99015.17
2017-12-26T10:35:12.013Z,99014.65
2017-12-26T10:37:39.430Z,99018.15
2017-12-26T10:40:06.894Z,99018.17
2017-12-26T10:42:34.327Z,99016.41
2017-12-26T10:45:01.747Z,99011.66
2017-12-26T10:47:29.169Z,99020.11
2017-12-26T10:49:56.686Z,99021.28
2017-12-26T10:52:24.055Z,99009.04
2017-12-26T10:54:51.493Z,99011.33
2017-12-26T10:57:18.896Z,99008.20
2017-12-26T10:59:46.299Z,99019.31
2017-12-26T11:02:13.722Z,99010.59
2017-12-26T11:04:41.124Z,99010.04
2017-12-26T11:07:08.537Z,99010.01
2017-12-26T11:09:35.973Z,99013.22
2017-12-26T11:12:03.378Z,99015.16
2017-12-26T11:14:30.785Z,99023.48
2017-12-26T11:16:58.209Z,99018.55
2017-12-26T11:19:25.610Z,99022.30
2017-12-26T11:21:53.013Z,99023.99
2017-12-26T11:24:20.429Z,99021.34
2017-12-26T11:26:47.833Z,99025.25
2017-12-26T11:29:15.241Z,99016.88
2017-12-26T11:31:42.682Z,99010.23
2017-12-26T11:34:10.085Z,99011.06
2017-12-26T11:36:37.497Z,99018.11
2017-12-26T11:39:04.933Z,99026.92
2017-12-26T11:41:32.358Z,99013.05
2017-12-26T11:43:59.765Z,99025.06
2017-12-26T11:46:27.281Z,99019.02
2017-12-26T11:48:54.694Z,99030.25
2017-12-26T11:51:22.121Z,99037.60
2017-12-26T11:53:49.629Z,99043.22
2017-12-26T11:56:17.029Z,99037.38
2017-12-26T11:58:44.445Z,99039.70
2017-12-26T12:01:11.870Z,99041.36
2017-12-26T12:03:39.278Z,99042.03
2017-12-26T12:06:06.682Z,99041.56
2017-12-26T12:08:34.093Z,99032.41
2017-12-26T12:11:01.908Z,99039.63
2017-12-26T12:13:29.305Z,99031.42
2017-12-26T12:15:56.721Z,99033.12
2017-12-26T12:18:24.188Z,99029.11
2017-12-26T12:20:51.581Z,99034.91
2017-12-26T12:23:19.093Z,99038.35
2017-12-26T12:25:46.505Z,99041.95
2017-12-26T12:28:13.921Z,99034.95
2017-12-26T12:30:41.337Z,99031.59
2017-12-26T12:33:08.736Z,99034.11
2017-12-26T12:35:36.133Z,99036.53
2017-12-26T12:38:03.545Z,99041.42
2017-12-26T12:40:30.949Z,99035.16
2017-12-26T12:42:58.353Z,99029.19
2017-12-26T12:45:25.865Z,99035.16
2017-12-26T12:47:53.279Z,99030.84
2017-12-26T12:50:20.670Z,99039.44
2017-12-26T12:52:48.110Z,99027.41
2017-12-26T12:55:15.513Z,99021.84
2017-12-26T12:57:42.905Z,99018.53
2017-12-26T13:00:10.325Z,99025.09
2017-12-26T13:02:37.724Z,99013.15
2017-12-26T13:05:05.118Z,99019.24
2017-12-26T13:07:32.528Z,99022.94
2017-12-26T13:09:59.922Z,99013.77
2017-12-26T13:12:27.329Z,99008.54
2017-12-26T13:14:54.765Z,99026.87
2017-12-26T13:17:22.162Z,99013.98
2017-12-26T13:19:49.565Z,99026.99
2017-12-26T13:22:16.981Z,99025.34
2017-12-26T13:24:44.389Z,99026.17
2017-12-26T13:27:11.797Z,99029.90
2017-12-26T13:29:39.220Z,99030.94
2017-12-26T13:32:06.626Z,99026.33
2017-12-26T13:34:34.029Z,99018.13
2017-12-26T13:37:01.464Z,99017.30
2017-12-26T13:39:28.855Z,99015.59
2017-12-26T13:41:56.251Z,99017.34
2017-12-26T13:44:23.678Z,99011.98
2017-12-26T13:46:51.070Z,99013.81
2017-12-26T13:49:18.473Z,99020.15
2017-12-26T13:51:45.981Z,99009.58
2017-12-26T13:54:13.381Z,99014.67
2017-12-26T13:56:40.781Z,99008.13
2017-12-26T13:59:08.192Z,99012.19
2017-12-26T14:01:35.589Z,99008.78
2017-12-26T14:04:02.986Z,99006.84
2017-12-26T14:06:30.420Z,99021.61
2017-12-26T14:08:57.809Z,99019.78
2017-12-26T14:11:25.202Z,99007.46
2017-12-26T14:13:52.623Z,99008.38
2017-12-26T14:16:20.021Z,99019.73
2017-12-26T14:18:47.465Z,99027.95
2017-12-26T14:21:14.864Z,99021.77
2017-12-26T14:23:42.265Z,99027.91
2017-12-26T14:26:09.669Z,99022.93
2017-12-26T14:28:37.093Z,99026.87
2017-12-26T14:31:04.489Z,99033.33
2017-12-26T14:33:31.907Z,99032.55
2017-12-26T14:35:59.322Z,99031.84
2017-12-26T14:38:26.724Z,99035.16
2017-12-26T14:40:54.130Z,99040.05
2017-12-26T14:43:21.537Z,99037.05
2017-12-26T14:45:48.940Z,99024.83
2017-12-26T14:48:16.337Z,99029.92
2017-12-26T14:50:43.766Z,99025.82
2017-12-26T14:53:11.165Z,99020.67
2017-12-26T14:55:38.570Z,99021.24
2017-12-26T14:58:05.985Z,99023.50
2017-12-26T15:00:33.391Z,99017.97
2017-12-26T15:03:00.785Z,99025.33
2017-12-26T15:05:28.205Z,99007.89
2017-12-26T15:07:55.631Z,99015.69
2017-12-26T15:10:23.034Z,99013.62
2017-12-26T15:12:50.444Z,99014.70
2017-12-26T15:15:17.838Z,99021.12
2017-12-26T15:17:45.229Z,99025.76
2017-12-26T15:20:12.638Z,99017.47
2017-12-26T15:22:40.037Z,99019.05
2017-12-26T15:25:07.429Z,99023.97
2017-12-26T15:27:34.842Z,99024.95
2017-12-26T15:30:02.255Z,99019.81
2017-12-26T15:32:29.648Z,99020.02
2017-12-26T15:34:57.061Z,99023.42
2017-12-26T15:37:24.461Z,99025.45
2017-12-26T15:39:51.857Z,99029.56
2017-12-26T15:42:19.256Z,99025.91
2017-12-26T15:44:46.648Z,99025.70
2017-12-26T15:47:14.042Z,99031.89
2017-12-26T15:49:41.458Z,99031.22
2017-12-26T15:52:08.849Z,99035.30
2017-12-26T15:54:36.255Z,99018.36
2017-12-26T15:57:03.664Z,99018.06
2017-12-26T15:59:31.070Z,99022.19
2017-12-26T16:01:58.465Z,99032.02
2017-12-26T16:04:25.871Z,99024.36
2017-12-26T16:06:53.276Z,99024.64
2017-12-26T16:09:20.673Z,99020.25
2017-12-26T16:11:48.105Z,99017.97
2017-12-26T16:14:15.498Z,99017.91
2017-12-26T16:16:42.893Z,99006.62
2017-12-26T16:19:10.298Z,99002.23
2017-12-26T16:21:37.709Z,98993.66
2017-12-26T16:24:05.114Z,98987.12
2017-12-26T16:26:32.525Z,98987.69
2017-12-26T16:28:59.926Z,98983.50
2017-12-26T16:31:27.334Z,98975.50
2017-12-26T16:33:54.753Z,98981.02
2017-12-26T16:36:22.142Z,98971.19
2017-12-26T16:38:49.537Z,98971.05
2017-12-26T16:41:16.981Z,98976.86
2017-12-26T16:43:44.381Z,98967.19
2017-12-26T16:46:11.777Z,98975.48
2017-12-26T16:48:39.204Z,98974.45
2017-12-26T16:51:06.630Z,98977.52
2017-12-26T16:53:34.043Z,98973.95
2017-12-26T16:56:01.473Z,98975.84
2017-12-26T16:58:28.878Z,98971.27
2017-12-26T17:00:56.294Z,98969.65
2017-12-26T17:03:23.702Z,98964.44
2017-12-26T17:05:51.096Z,98965.88
2017-12-26T17:08:18.497Z,98968.06
2017-12-26T17:10:45.910Z,98966.81
2017-12-26T17:13:13.303Z,98959.70
2017-12-26T17:15:40.709Z,98967.00
2017-12-26T17:18:08.117Z,98962.03
2017-12-26T17:20:35.527Z,98961.88
2017-12-26T17:23:02.925Z,98958.20
2017-12-26T17:25:30.341Z,98952.38
2017-12-26T17:27:57.754Z,98949.84
2017-12-26T17:30:25.153Z,98952.74
2017-12-26T17:32:52.568Z,98949.03
2017-12-26T17:35:19.961Z,98945.20
2017-12-26T17:37:47.363Z,98932.50
2017-12-26T17:40:14.797Z,98942.98
2017-12-26T17:42:42.194Z,98941.58
2017-12-26T17:45:09.585Z,98944.16
2017-12-26T17:47:37.001Z,98942.70
2017-12-26T17:50:04.394Z,98929.39
2017-12-26T17:52:31.790Z,98925.04
2017-12-26T17:54:59.198Z,98924.77
2017-12-26T17:57:26.598Z,98919.12
2017-12-26T17:59:54.004Z,98922.17
2017-12-26T18:02:21.435Z,98921.08
2017-12-26T18:04:48.836Z,98914.58
2017-12-26T18:07:16.229Z,98913.28
2017-12-26T18:09:43.643Z,98903.30
2017-12-26T18:12:11.044Z,98902.03
2017-12-26T18:14:38.443Z,98901.52
2017-12-26T18:17:05.990Z,98897.43
2017-12-26T18:19:33.384Z,98890.59
2017-12-26T18:22:00.785Z,98891.17
2017-12-26T18:24:28.193Z,98880.16
2017-12-26T18:26:55.589Z,98879.52
2017-12-26T18:29:22.997Z,98876.55
2017-12-26T18:31:50.404Z,98869.93
2017-12-26T18:34:17.832Z,98867.31
2017-12-26T18:36:45.231Z,98865.52
2017-12-26T18:39:12.640Z,98866.45
2017-12-26T18:41:40.036Z,98851.58
2017-12-26T18:44:07.441Z,98840.25
2017-12-26T18:46:34.857Z,98830.13
2017-12-26T18:49:02.256Z,98834.86
2017-12-26T18:51:29.660Z,98829.53
2017-12-26T18:53:57.080Z,98832.25
2017-12-26T18:56:24.477Z,98831.72
2017-12-26T18:58:51.876Z,98824.34
2017-12-26T19:01:19.305Z,98827.73
2017-12-26T19:03:46.712Z,98824.09
2017-12-26T19:06:14.117Z,98817.33
2017-12-26T19:08:41.534Z,98801.48
2017-12-26T19:11:08.938Z,98801.39
2017-12-26T19:13:36.336Z,98804.23
2017-12-26T19:16:03.766Z,98800.21
2017-12-26T19:18:31.169Z,98793.52
2017-12-26T19:20:58.584Z,98797.02
2017-12-26T19:23:26.006Z,98784.64
2017-12-26T19:25:53.425Z,98777.86
2017-12-26T19:28:20.829Z,98772.02
2017-12-26T19:30:48.259Z,98761.64
2017-12-26T19:33:15.670Z,98760.14
2017-12-26T19:35:43.069Z,98751.40
2017-12-26T19:38:10.489Z,98745.55
2017-12-26T19:40:37.896Z,98738.94
2017-12-26T19:43:05.349Z,98738.53
2017-12-26T19:45:32.769Z,98733.72
2017-12-26T19:48:00.175Z,98729.05
2017-12-26T19:50:27.585Z,98720.27
2017-12-26T19:52:55.002Z,98718.48
2017-12-26T19:55:22.409Z,98708.23
2017-12-26T19:57:49.813Z,98704.82
2017-12-26T20:00:17.225Z,98700.42
2017-12-26T20:02:44.621Z,98689.78
2017-12-26T20:05:12.028Z,98679.04
2017-12-26T20:07:39.441Z,98680.06
2017-12-26T20:10:06.845Z,98676.63
2017-12-26T20:12:34.250Z,98667.32
2017-12-26T20:15:01.668Z,98664.14
2017-12-26T20:17:29.067Z,98665.59
2017-12-26T20:19:56.468Z,98654.93
2017-12-26T20:22:23.881Z,98651.34
2017-12-26T20:24:51.278Z,98646.27
2017-12-26T20:27:18.680Z,98649.77
2017-12-26T20:29:46.094Z,98644.21
2017-12-26T20:32:13.490Z,98643.33
2017-12-26T20:34:40.952Z,98638.08
2017-12-26T20:37:08.386Z,98637.93
2017-12-26T20:39:35.797Z,98632.23
2017-12-26T20:42:03.205Z,98621.81
2017-12-26T20:44:30.637Z,98622.81
2017-12-26T20:46:58.044Z,98620.95
2017-12-26T20:49:25.448Z,98618.88
2017-12-26T20:51:52.888Z,98613.78
2017-12-26T20:54:20.297Z,98612.23
2017-12-26T20:56:47.704Z,98613.55
2017-12-26T20:59:15.116Z,98610.70
2017-12-26T21:01:42.524Z,98607.50
2017-12-26T21:04:09.945Z,98592.30
2017-12-26T21:06:37.383Z,98590.45
2017-12-26T21:09:04.787Z,98580.56
2017-12-26T21:11:32.190Z,98579.89
2017-12-26T21:13:59.600Z,98579.19
2017-12-26T21:16:27.006Z,98571.05
2017-12-26T21:18:54.596Z,98569.88
2017-12-26T21:21:22.014Z,98564.89
2017-12-26T21:23:49.412Z,98557.88
2017-12-26T21:26:16.821Z,98553.04
2017-12-26T21:28:44.252Z,98541.77
2017-12-26T21:31:11.657Z,98528.66
2017-12-26T21:33:39.064Z,98524.23
2017-12-26T21:36:06.496Z,98516.36
2017-12-26T21:38:33.901Z,98501.28
2017-12-26T21:41:01.306Z,98496.80
2017-12-26T21:43:28.726Z,98502.16
2017-12-26T21:45:56.133Z,98504.39
2017-12-26T21:48:23.540Z,98504.45
2017-12-26T21:50:50.957Z,98502.09
2017-12-26T21:53:18.362Z,98503.36
2017-12-26T21:55:45.771Z,98502.32
2017-12-26T21:58:13.184Z,98498.98
2017-12-26T22:00:40.591Z,98493.09
2017-12-26T22:03:08.000Z,98487.72
2017-12-26T22:05:35.435Z,98483.13
2017-12-26T22:08:02.845Z,98479.95
2017-12-26T22:10:30.251Z,98476.11
2017-12-26T22:12:57.681Z,98466.38
2017-12-26T22:15:25.084Z,98456.42
2017-12-26T22:17:52.493Z,98451.69
2017-12-26T22:20:19.904Z,98444.30
2017-12-26T22:22:47.312Z,98435.66
2017-12-26T22:25:14.724Z,98437.16
2017-12-26T22:27:42.138Z,98433.06
2017-12-26T22:30:09.536Z,98439.75
2017-12-26T22:32:36.941Z,98434.19
2017-12-26T22:35:04.356Z,98429.40
2017-12-26T22:37:31.761Z,98428.58
2017-12-26T22:39:59.165Z,98419.65
2017-12-26T22:42:26.597Z,98419.81
2017-12-26T22:44:54.007Z,98415.60
2017-12-26T22:47:21.402Z,98405.97
2017-12-26T22:49:48.826Z,98389.37
2017-12-26T22:52:16.233Z,98380.94
2017-12-26T22:54:43.636Z,98364.33
2017-12-26T22:57:11.052Z,98361.69
2017-12-26T22:59:38.449Z,98350.53
2017-12-26T23:02:05.861Z,98343.14
2017-12-26T23:04:33.265Z,98337.97
2017-12-26T23:07:00.672Z,98333.95
2017-12-26T23:09:28.073Z,98335.62
2017-12-26T23:11:55.501Z,98322.00
2017-12-26T23:14:28.455Z,98321.55
2017-12-26T23:17:01.383Z,98323.25
2017-12-26T23:19:28.782Z,98310.90
2017-12-26T23:21:56.189Z,98305.03
2017-12-26T23:24:29.133Z,98299.70
2017-12-26T23:27:02.048Z,98287.80
2017-12-26T23:32:36.961Z,98260.09
2017-12-26T23:35:10.064Z,98257.05
2017-12-26T23:37:43.028Z,98249.00
2017-12-26T23:40:16.119Z,98246.66
2017-12-26T23:42:49.045Z,98252.27
2017-12-26T23:45:22.177Z,98240.50
2017-12-26T23:47:55.129Z,98229.55
2017-12-26T23:50:28.109Z,98219.45
2017-12-26T23:53:01.168Z,98203.11
2017-12-26T23:55:34.178Z,98197.00
2017-12-26T23:58:07.064Z,98199.20
